createdAt,value
2022-09-12T09:19:50.993Z,100020.53
2022-09-12T09:20:22.631Z,100006.84
2022-09-12T09:20:54.103Z,100013.13
2022-09-12T09:21:25.504Z,100015.88
2022-09-12T09:21:56.921Z,100012.31
2022-09-12T09:22:28.333Z,100019.72
2022-09-12T09:22:59.729Z,100021.03
2022-09-12T09:23:31.151Z,100014.75
2022-09-12T09:24:02.569Z,100020.22
2022-09-12T09:24:33.998Z,100016.69
2022-09-12T09:25:05.403Z,100017.78
2022-09-12T09:25:36.780Z,100020.22
2022-09-12T09:26:08.267Z,100020.22
2022-09-12T09:26:39.649Z,100014.75
2022-09-12T09:27:29.800Z,100007.66
2022-09-12T09:28:02.436Z,100019.13
2022-09-12T09:28:33.840Z,100012.84
2022-09-12T09:29:05.246Z,100010.41
2022-09-12T09:29:36.722Z,100012.31
2022-09-12T09:30:08.106Z,100012.31
2022-09-12T09:30:39.574Z,100007.66
2022-09-12T09:31:11.118Z,100018.91
2022-09-12T09:31:42.575Z,100016.69
2022-09-12T09:32:13.995Z,100015.56
2022-09-12T09:32:45.379Z,100017.50
2022-09-12T09:33:16.994Z,100019.41
2022-09-12T09:33:48.425Z,100009.28
2022-09-12T09:34:19.929Z,100012.53
2022-09-12T09:34:51.332Z,100019.13
2022-09-12T09:35:22.730Z,100019.13
2022-09-12T09:35:54.120Z,100016.38
2022-09-12T09:36:25.588Z,100022.38
2022-09-12T09:36:56.987Z,100007.06
2022-09-12T09:37:28.437Z,100014.16
2022-09-12T09:37:59.805Z,100019.13
2022-09-12T09:38:31.194Z,100021.84
2022-09-12T09:39:02.614Z,100017.50
2022-09-12T09:39:34.053Z,100016.69
2022-09-12T09:40:05.546Z,100006.84
2022-09-12T09:40:37.015Z,100013.44
2022-09-12T09:41:08.406Z,100014.25
2022-09-12T09:41:39.876Z,100013.13
2022-09-12T09:42:11.268Z,100012.31
2022-09-12T09:42:42.590Z,100004.34
2022-09-12T09:43:14.019Z,100004.63
2022-09-12T09:43:45.446Z,100003.81
2022-09-12T09:44:16.995Z,100008.47
2022-09-12T09:44:48.487Z,100003.81
2022-09-12T09:45:19.902Z,100014.75
2022-09-12T09:45:51.381Z,100004.94
2022-09-12T09:46:22.911Z,100007.38
2022-09-12T09:46:54.529Z,100008.19
2022-09-12T09:47:25.991Z,100004.03
2022-09-12T09:47:57.542Z,100001.59
2022-09-12T09:48:28.956Z,100001.59
2022-09-12T09:49:02.678Z,100005.44
2022-09-12T09:49:34.080Z,100010.91
2022-09-12T09:50:05.475Z,100007.38
2022-09-12T09:50:36.876Z,100009.28
2022-09-12T09:51:08.235Z,100004.94
2022-09-12T09:51:39.679Z,100001.69
2022-09-12T09:52:11.158Z,100009.28
2022-09-12T09:52:42.615Z,100005.44
2022-09-12T09:53:14.068Z,100004.34
2022-09-12T09:53:45.484Z,100006.56
2022-09-12T09:54:17.097Z,100014.25
2022-09-12T09:54:48.502Z,100003.81
2022-09-12T09:55:20.097Z,100012.03
2022-09-12T09:55:51.552Z,100010.91
2022-09-12T09:56:23.354Z,100005.75
2022-09-12T09:56:54.849Z,100000.78
2022-09-12T09:57:26.291Z,100002.72
2022-09-12T09:57:57.689Z,100005.44
2022-09-12T09:58:29.086Z,100000.78
2022-09-12T09:59:00.472Z,100001.91
2022-09-12T09:59:31.836Z,100000.50
2022-09-12T10:00:03.274Z,100003.22
2022-09-12T10:00:34.692Z,100002.41
2022-09-12T10:01:06.237Z,99996.13
2022-09-12T10:01:37.746Z,99995.63
2022-09-12T10:02:09.180Z,99999.97
2022-09-12T10:02:40.775Z,99999.16
2022-09-12T10:03:13.965Z,99992.91
2022-09-12T10:03:45.674Z,99996.97
2022-09-12T10:04:17.137Z,99999.38
2022-09-12T10:04:48.571Z,99997.75
2022-09-12T10:05:20.082Z,99990.69
2022-09-12T10:05:51.472Z,99999.38
2022-09-12T10:06:22.902Z,99993.13
2022-09-12T10:06:54.357Z,99998.56
2022-09-12T10:07:25.840Z,99995.53
2022-09-12T10:07:57.273Z,99992.81
2022-09-12T10:08:28.737Z,99987.66
2022-09-12T10:09:00.133Z,99987.13
2022-09-12T10:09:31.558Z,99989.56
2022-09-12T10:10:02.977Z,99985.22
2022-09-12T10:10:34.349Z,99982.47
2022-09-12T10:11:05.784Z,99986.84
2022-09-12T10:11:37.204Z,99991.50
2022-09-12T10:12:08.612Z,99983.00
2022-09-12T10:12:40.075Z,99991.72
2022-09-12T10:13:11.573Z,99988.47
2022-09-12T10:13:43.118Z,99987.66
2022-09-12T10:14:14.621Z,99985.22
2022-09-12T10:14:46.052Z,99988.75
2022-09-12T10:15:17.421Z,99979.75
2022-09-12T10:15:48.909Z,99983.81
2022-09-12T10:16:20.434Z,99980.25
2022-09-12T10:16:51.915Z,99984.09
2022-09-12T10:17:23.345Z,99982.41
2022-09-12T10:17:54.792Z,99983.81
2022-09-12T10:18:26.284Z,99984.63
2022-09-12T10:18:57.675Z,99987.66
2022-09-12T10:19:29.111Z,99978.34
2022-09-12T10:20:19.929Z,99983.81
2022-09-12T10:20:52.039Z,99982.69
2022-09-12T10:21:23.461Z,99982.19
2022-09-12T10:21:54.854Z,99981.38
2022-09-12T10:22:26.270Z,99990.91
2022-09-12T10:22:57.665Z,99984.09
2022-09-12T10:23:29.082Z,99982.69
2022-09-12T10:24:00.493Z,99979.97
2022-09-12T10:24:31.972Z,99979.16
2022-09-12T10:25:03.403Z,99980.78
2022-09-12T10:25:34.842Z,99982.69
2022-09-12T10:26:06.252Z,99980.78
2022-09-12T10:26:37.676Z,99975.81
2022-09-12T10:27:09.100Z,99980.78
2022-09-12T10:27:40.533Z,99985.44
2022-09-12T10:28:11.956Z,99979.97
2022-09-12T10:28:43.488Z,99980.78
2022-09-12T10:29:14.946Z,99982.69
2022-09-12T10:29:46.415Z,99981.88
2022-09-12T10:30:17.794Z,99972.56
2022-09-12T10:30:49.216Z,99975.53
2022-09-12T10:31:20.655Z,99973.91
2022-09-12T10:31:52.122Z,99977.16
2022-09-12T10:32:26.329Z,99974.72
2022-09-12T10:33:01.884Z,99979.06
2022-09-12T10:33:33.303Z,99977.44
2022-09-12T10:34:04.752Z,99978.56
2022-09-12T10:34:36.148Z,99975.81
2022-09-12T10:35:07.692Z,99979.06
2022-09-12T10:35:39.104Z,99978.25
2022-09-12T10:36:10.541Z,99979.06
2022-09-12T10:36:41.951Z,99977.75
2022-09-12T10:37:13.386Z,99980.19
2022-09-12T10:37:46.667Z,99975.53
2022-09-12T10:38:20.818Z,99974.72
2022-09-12T10:38:52.251Z,99980.47
2022-09-12T10:39:23.669Z,99977.75
2022-09-12T10:39:55.115Z,99976.13
2022-09-12T10:40:26.609Z,99976.94
2022-09-12T10:40:58.063Z,99972.56
2022-09-12T10:41:29.487Z,99970.66
2022-09-12T10:42:00.894Z,99972.28
2022-09-12T10:42:32.324Z,99966.00
2022-09-12T10:43:03.762Z,99967.63
2022-09-12T10:43:35.301Z,99971.47
2022-09-12T10:44:06.789Z,99962.16
2022-09-12T10:44:38.278Z,99970.34
2022-09-12T10:45:09.688Z,99969.53
2022-09-12T10:45:41.266Z,99966.28
2022-09-12T10:46:12.757Z,99961.66
2022-09-12T10:46:44.221Z,99960.53
2022-09-12T10:47:15.767Z,99966.81
2022-09-12T10:47:47.421Z,99959.72
2022-09-12T10:48:18.845Z,99966.28
2022-09-12T10:48:50.253Z,99966.00
2022-09-12T10:49:21.655Z,99968.22
2022-09-12T10:49:53.065Z,99970.66
2022-09-12T10:50:24.480Z,99962.44
2022-09-12T10:50:56.088Z,99966.00
2022-09-12T10:51:27.504Z,99963.25
2022-09-12T10:51:58.918Z,99961.66
2022-09-12T10:52:30.333Z,99966.00
2022-09-12T10:53:01.789Z,99960.53
2022-09-12T10:53:34.704Z,99957.00
2022-09-12T10:54:06.339Z,99962.97
2022-09-12T10:54:37.752Z,99960.53
2022-09-12T10:55:09.177Z,99958.91
2022-09-12T10:55:40.588Z,99962.44
2022-09-12T10:56:12.101Z,99956.19
2022-09-12T10:56:43.561Z,99966.00
2022-09-12T10:57:14.971Z,99960.53
2022-09-12T10:57:46.408Z,99960.53
2022-09-12T10:58:17.836Z,99961.13
2022-09-12T10:58:49.212Z,99951.00
2022-09-12T10:59:20.642Z,99958.09
2022-09-12T10:59:52.062Z,99960.03
2022-09-12T11:00:23.449Z,99960.03
2022-09-12T11:00:54.855Z,99959.50
2022-09-12T11:01:26.392Z,99961.66
2022-09-12T11:01:57.882Z,99961.66
2022-09-12T11:02:29.356Z,99963.25
2022-09-12T11:03:00.852Z,99957.28
2022-09-12T11:03:32.247Z,99962.75
2022-09-12T11:04:03.665Z,99959.50
2022-09-12T11:04:35.087Z,99955.66
2022-09-12T11:05:06.494Z,99959.22
2022-09-12T11:05:37.942Z,99952.34
2022-09-12T11:06:09.336Z,99954.56
2022-09-12T11:06:40.793Z,99954.25
2022-09-12T11:07:12.231Z,99958.91
2022-09-12T11:07:43.612Z,99960.53
2022-09-12T11:08:14.978Z,99957.00
2022-09-12T11:08:46.430Z,99960.53
2022-09-12T11:09:17.835Z,99950.41
2022-09-12T11:09:49.221Z,99953.66
2022-09-12T11:10:20.652Z,99950.63
2022-09-12T11:10:52.084Z,99953.34
2022-09-12T11:11:23.472Z,99950.63
2022-09-12T11:11:54.934Z,99954.69
2022-09-12T11:12:26.490Z,99957.41
2022-09-12T11:12:57.944Z,99950.03
2022-09-12T11:13:29.376Z,99945.97
2022-09-12T11:14:00.852Z,99945.16
2022-09-12T11:14:32.259Z,99954.38
2022-09-12T11:15:03.629Z,99941.81
2022-09-12T11:15:35.080Z,99940.50
2022-09-12T11:16:06.601Z,99944.34
2022-09-12T11:16:40.196Z,99945.97
2022-09-12T11:17:13.775Z,99945.16
2022-09-12T11:17:45.227Z,99942.44
2022-09-12T11:18:16.869Z,99945.97
2022-09-12T11:18:48.319Z,99939.69
2022-09-12T11:19:19.751Z,99942.44
2022-09-12T11:19:51.137Z,99943.25
2022-09-12T11:20:22.634Z,99939.09
2022-09-12T11:20:54.055Z,99938.28
2022-09-12T11:21:25.452Z,99945.38
2022-09-12T11:21:56.889Z,99936.06
2022-09-12T11:22:31.770Z,99932.22
2022-09-12T11:23:03.503Z,99942.34
2022-09-12T11:23:34.894Z,99942.34
2022-09-12T11:24:06.277Z,99936.88
2022-09-12T11:24:37.651Z,99940.41
2022-09-12T11:25:09.031Z,99937.69
2022-09-12T11:25:40.483Z,99936.06
2022-09-12T11:26:11.951Z,99934.66
2022-09-12T11:26:43.360Z,99930.00
2022-09-12T11:27:14.771Z,99934.34
2022-09-12T11:27:46.290Z,99928.06
2022-09-12T11:28:17.758Z,99932.44
2022-09-12T11:28:49.153Z,99923.72
2022-09-12T11:29:20.554Z,99936.28
2022-09-12T11:29:51.973Z,99926.97
2022-09-12T11:30:23.345Z,99927.78
2022-09-12T11:30:54.900Z,99929.19
2022-09-12T11:31:26.314Z,99926.44
2022-09-12T11:31:57.763Z,99924.81
2022-09-12T11:32:29.203Z,99923.72
2022-09-12T11:33:00.637Z,99923.72
2022-09-12T11:33:32.048Z,99925.34
2022-09-12T11:34:03.479Z,99924.53
2022-09-12T11:34:34.954Z,99922.59
2022-09-12T11:35:06.348Z,99926.16
2022-09-12T11:35:37.756Z,99920.69
2022-09-12T11:36:09.283Z,99919.88
2022-09-12T11:36:40.670Z,99924.22
2022-09-12T11:37:15.094Z,99923.13
2022-09-12T11:37:48.818Z,99919.88
2022-09-12T11:38:20.223Z,99919.56
2022-09-12T11:38:51.682Z,99919.28
2022-09-12T11:39:23.091Z,99916.03
2022-09-12T11:39:55.855Z,99920.69
2022-09-12T11:40:27.639Z,99920.38
2022-09-12T11:40:59.090Z,99916.03
2022-09-12T11:41:30.615Z,99915.53
2022-09-12T11:42:02.041Z,99912.78
2022-09-12T11:42:33.489Z,99908.13
2022-09-12T11:43:04.965Z,99918.25
2022-09-12T11:43:36.447Z,99919.88
2022-09-12T11:44:07.933Z,99908.94
2022-09-12T11:44:40.362Z,99911.66
2022-09-12T11:45:11.941Z,99914.09
2022-09-12T11:45:43.387Z,99904.28
2022-09-12T11:46:14.864Z,99909.75
2022-09-12T11:46:51.117Z,99905.41
2022-09-12T11:47:23.251Z,99906.50
2022-09-12T11:47:54.669Z,99901.84
2022-09-12T11:48:26.203Z,99905.69
2022-09-12T11:48:57.657Z,99903.47
2022-09-12T11:49:32.378Z,99902.66
2022-09-12T11:50:06.334Z,99912.47
2022-09-12T11:50:37.767Z,99905.09
2022-09-12T11:51:09.193Z,99917.66
2022-09-12T11:51:40.573Z,99918.75
2022-09-12T11:52:12.042Z,99908.34
2022-09-12T11:52:43.473Z,99913.81
2022-09-12T11:53:14.902Z,99909.97
2022-09-12T11:53:46.415Z,99909.97
2022-09-12T11:54:17.907Z,99910.78
2022-09-12T11:54:53.556Z,99910.78
2022-09-12T11:55:25.366Z,99907.53
2022-09-12T11:55:56.771Z,99911.88
2022-09-12T11:56:28.225Z,99909.97
2022-09-12T11:56:59.695Z,99905.31
2022-09-12T11:57:31.197Z,99899.84
2022-09-12T11:58:02.565Z,99907.53
2022-09-12T11:58:33.973Z,99907.53
2022-09-12T11:59:05.406Z,99902.88
2022-09-12T11:59:36.829Z,99908.03
2022-09-12T12:00:11.159Z,99902.88
2022-09-12T12:00:42.658Z,99907.22
2022-09-12T12:01:14.135Z,99902.56
2022-09-12T12:01:48.677Z,99901.75
2022-09-12T12:02:20.461Z,99906.13
2022-09-12T12:02:51.986Z,99908.84
2022-09-12T12:03:23.432Z,99904.19
2022-09-12T12:03:54.898Z,99913.19
2022-09-12T12:04:26.314Z,99904.69
2022-09-12T12:04:57.720Z,99904.69
2022-09-12T12:05:29.250Z,99903.88
2022-09-12T12:06:00.676Z,99902.25
2022-09-12T12:06:32.151Z,99901.16
2022-09-12T12:07:03.553Z,99894.06
2022-09-12T12:07:34.978Z,99896.28
2022-09-12T12:08:06.444Z,99896.00
2022-09-12T12:08:37.884Z,99892.44
2022-09-12T12:09:09.348Z,99896.81
2022-09-12T12:09:40.733Z,99898.22
2022-09-12T12:10:12.281Z,99898.50
2022-09-12T12:10:43.733Z,99894.97
2022-09-12T12:11:15.133Z,99899.31
2022-09-12T12:11:46.531Z,99894.66
2022-09-12T12:12:17.977Z,99895.47
2022-09-12T12:12:49.388Z,99896.00
2022-09-12T12:13:20.856Z,99894.06
2022-09-12T12:13:52.238Z,99892.16
2022-09-12T12:14:23.670Z,99892.16
2022-09-12T12:14:55.093Z,99892.16
2022-09-12T12:15:26.534Z,99891.34
2022-09-12T12:15:58.006Z,99889.72
2022-09-12T12:16:29.477Z,99893.75
2022-09-12T12:17:00.869Z,99889.41
2022-09-12T12:17:32.314Z,99880.41
2022-09-12T12:18:03.718Z,99885.88
2022-09-12T12:18:35.203Z,99885.88
2022-09-12T12:19:10.597Z,99884.25
2022-09-12T12:19:42.324Z,99879.88
2022-09-12T12:20:13.764Z,99886.69
2022-09-12T12:20:45.197Z,99885.06
2022-09-12T12:21:16.716Z,99884.25
2022-09-12T12:21:48.158Z,99883.44
2022-09-12T12:22:19.682Z,99885.06
2022-09-12T12:22:51.127Z,99889.72
2022-09-12T12:23:22.536Z,99882.63
2022-09-12T12:23:53.971Z,99888.91
2022-09-12T12:24:25.507Z,99885.88
2022-09-12T12:24:56.912Z,99891.34
2022-09-12T12:25:30.043Z,99881.50
2022-09-12T12:26:01.531Z,99890.22
2022-09-12T12:26:32.989Z,99888.59
2022-09-12T12:27:04.394Z,99885.56
2022-09-12T12:27:35.832Z,99886.38
2022-09-12T12:28:07.240Z,99891.84
2022-09-12T12:28:38.708Z,99883.94
2022-09-12T12:29:10.195Z,99883.63
2022-09-12T12:29:43.812Z,99886.38
2022-09-12T12:30:15.920Z,99884.44
2022-09-12T12:30:47.570Z,99884.75
2022-09-12T12:31:19.081Z,99888.00
2022-09-12T12:31:50.550Z,99880.91
2022-09-12T12:32:21.989Z,99882.03
2022-09-12T12:32:53.357Z,99884.44
2022-09-12T12:33:24.752Z,99882.84
2022-09-12T12:33:56.156Z,99884.44
2022-09-12T12:34:27.617Z,99878.16
2022-09-12T12:34:59.059Z,99877.88
2022-09-12T12:35:30.512Z,99875.13
2022-09-12T12:36:01.923Z,99878.69
2022-09-12T12:36:33.377Z,99875.94
2022-09-12T12:37:07.392Z,99876.75
2022-09-12T12:37:38.877Z,99871.91
2022-09-12T12:38:10.324Z,99872.41
2022-09-12T12:38:41.791Z,99878.16
2022-09-12T12:39:13.208Z,99871.59
2022-09-12T12:39:44.722Z,99879.78
2022-09-12T12:40:16.429Z,99875.94
2022-09-12T12:40:47.992Z,99868.03
2022-09-12T12:41:19.404Z,99877.06
2022-09-12T12:41:50.942Z,99872.09
2022-09-12T12:42:22.499Z,99866.63
2022-09-12T12:42:53.956Z,99874.03
2022-09-12T12:43:25.382Z,99862.28
2022-09-12T12:43:56.835Z,99868.03
2022-09-12T12:44:28.276Z,99866.13
2022-09-12T12:44:59.745Z,99862.56
2022-09-12T12:45:31.187Z,99866.13
2022-09-12T12:46:02.707Z,99874.31
2022-09-12T12:46:34.234Z,99863.69
2022-09-12T12:47:05.751Z,99867.84
2022-09-12T12:47:37.131Z,99862.06
2022-09-12T12:48:08.531Z,99864.81
2022-09-12T12:48:39.950Z,99871.91
2022-09-12T12:49:11.378Z,99869.47
2022-09-12T12:49:42.835Z,99860.97
2022-09-12T12:50:14.330Z,99861.47
2022-09-12T12:50:45.752Z,99863.09
2022-09-12T12:51:17.374Z,99864.72
2022-09-12T12:51:48.834Z,99851.84
2022-09-12T12:52:20.357Z,99850.22
2022-09-12T12:52:51.795Z,99840.91
2022-09-12T12:53:23.190Z,99857.63
2022-09-12T12:53:54.583Z,99849.94
2022-09-12T12:54:26.050Z,99856.50
2022-09-12T12:54:57.538Z,99851.84
2022-09-12T12:55:29.016Z,99852.66
2022-09-12T12:56:00.445Z,99851.03
2022-09-12T12:56:31.865Z,99848.81
2022-09-12T12:57:03.291Z,99851.53
2022-09-12T12:57:34.665Z,99843.66
2022-09-12T12:58:06.125Z,99852.97
2022-09-12T12:58:37.530Z,99853.78
2022-09-12T12:59:08.951Z,99857.63
2022-09-12T12:59:40.404Z,99848.81
2022-09-12T13:00:11.800Z,99847.50
2022-09-12T13:00:43.271Z,99842.03
2022-09-12T13:01:14.727Z,99854.28
2022-09-12T13:01:46.204Z,99849.94
2022-09-12T13:02:17.811Z,99853.47
2022-09-12T13:02:49.276Z,99844.16
2022-09-12T13:03:20.745Z,99842.84
2022-09-12T13:03:52.134Z,99836.56
2022-09-12T13:04:23.565Z,99842.53
2022-09-12T13:04:54.957Z,99840.91
2022-09-12T13:05:26.360Z,99839.59
2022-09-12T13:05:57.800Z,99843.13
2022-09-12T13:06:29.145Z,99837.16
2022-09-12T13:07:03.492Z,99837.16
2022-09-12T13:07:37.335Z,99838.28
2022-09-12T13:08:08.748Z,99838.78
2022-09-12T13:08:40.169Z,99832.22
2022-09-12T13:09:11.553Z,99836.88
2022-09-12T13:09:42.956Z,99827.25
2022-09-12T13:10:14.437Z,99824.00
2022-09-12T13:10:48.470Z,99828.66
2022-09-12T13:11:19.971Z,99833.81
2022-09-12T13:11:51.372Z,99828.56
2022-09-12T13:12:22.866Z,99831.09
2022-09-12T13:12:54.284Z,99818.53
2022-09-12T13:13:25.813Z,99822.88
2022-09-12T13:13:57.315Z,99822.06
2022-09-12T13:14:28.744Z,99834.94
2022-09-12T13:15:00.155Z,99828.34
2022-09-12T13:15:31.575Z,99831.91
2022-09-12T13:16:03.089Z,99826.75
2022-09-12T13:16:34.537Z,99819.03
2022-09-12T13:17:05.937Z,99821.47
2022-09-12T13:17:37.434Z,99823.69
2022-09-12T13:18:08.938Z,99817.94
2022-09-12T13:18:40.521Z,99820.06
2022-09-12T13:19:16.123Z,99816.19
2022-09-12T13:19:49.771Z,99812.97
2022-09-12T13:20:28.312Z,99812.97
2022-09-12T13:21:00.315Z,99816.81
2022-09-12T13:21:31.754Z,99813.28
2022-09-12T13:22:03.197Z,99808.91
2022-09-12T13:22:34.680Z,99806.69
2022-09-12T13:23:06.139Z,99808.63
2022-09-12T13:23:37.546Z,99812.16
2022-09-12T13:24:08.956Z,99813.78
2022-09-12T13:24:40.352Z,99806.69
2022-09-12T13:25:11.882Z,99802.63
2022-09-12T13:25:43.417Z,99808.91
2022-09-12T13:26:14.895Z,99807.81
2022-09-12T13:26:46.395Z,99809.22
2022-09-12T13:27:17.923Z,99804.25
2022-09-12T13:27:49.332Z,99805.38
2022-09-12T13:28:20.839Z,99806.69
2022-09-12T13:28:52.291Z,99803.16
2022-09-12T13:29:23.705Z,99801.53
2022-09-12T13:29:55.139Z,99805.38
2022-09-12T13:30:26.603Z,99807.50
2022-09-12T13:30:58.009Z,99800.72
2022-09-12T13:31:29.435Z,99805.38
2022-09-12T13:32:00.921Z,99801.03
2022-09-12T13:32:32.409Z,99799.91
2022-09-12T13:33:03.809Z,99798.78
2022-09-12T13:33:35.255Z,99799.91
2022-09-12T13:34:06.745Z,99797.16
2022-09-12T13:34:38.243Z,99798.78
2022-09-12T13:35:09.653Z,99798.78
2022-09-12T13:35:41.161Z,99794.94
2022-09-12T13:36:12.611Z,99795.25
2022-09-12T13:36:44.092Z,99788.16
2022-09-12T13:37:15.561Z,99794.75
2022-09-12T13:37:51.425Z,99785.72
2022-09-12T13:38:23.054Z,99794.44
2022-09-12T13:38:54.565Z,99789.28
2022-09-12T13:39:25.975Z,99790.91
2022-09-12T13:39:57.514Z,99787.03
2022-09-12T13:40:28.950Z,99792.22
2022-09-12T13:41:00.466Z,99787.84
2022-09-12T13:41:31.877Z,99786.75
2022-09-12T13:42:03.263Z,99797.16
2022-09-12T13:42:34.700Z,99790.59
2022-09-12T13:43:06.183Z,99787.53
2022-09-12T13:43:37.650Z,99799.59
2022-09-12T13:44:09.129Z,99794.13
2022-09-12T13:44:40.578Z,99791.69
2022-09-12T13:45:12.005Z,99787.25
2022-09-12T13:45:43.449Z,99785.31
2022-09-12T13:46:14.926Z,99780.16
2022-09-12T13:46:46.402Z,99786.94
2022-09-12T13:47:17.821Z,99789.97
2022-09-12T13:47:49.264Z,99784.50
2022-09-12T13:48:20.810Z,99785.31
2022-09-12T13:48:52.238Z,99784.22
2022-09-12T13:49:23.768Z,99784.50
2022-09-12T13:49:55.216Z,99791.28
2022-09-12T13:50:26.634Z,99789.66
2022-09-12T13:50:58.092Z,99787.25
2022-09-12T13:51:29.518Z,99792.72
2022-09-12T13:52:01.029Z,99786.75
2022-09-12T13:52:32.486Z,99792.22
2022-09-12T13:53:03.912Z,99789.78
2022-09-12T13:53:35.381Z,99787.03
2022-09-12T13:54:06.815Z,99782.69
2022-09-12T13:54:38.287Z,99779.16
2022-09-12T13:55:09.665Z,99774.78
2022-09-12T13:55:41.087Z,99776.41
2022-09-12T13:56:12.476Z,99783.50
2022-09-12T13:56:44.031Z,99775.31
2022-09-12T13:57:15.470Z,99776.09
2022-09-12T13:57:49.695Z,99781.56
2022-09-12T13:58:21.166Z,99775.31
2022-09-12T13:58:52.552Z,99778.53
2022-09-12T13:59:24.034Z,99768.72
2022-09-12T13:59:55.544Z,99769.81
2022-09-12T14:00:26.986Z,99772.56
2022-09-12T14:00:58.400Z,99773.69
2022-09-12T14:01:29.827Z,99774.50
2022-09-12T14:02:01.323Z,99769.03
2022-09-12T14:02:32.794Z,99773.69
2022-09-12T14:03:04.268Z,99774.19
2022-09-12T14:03:35.703Z,99762.44
2022-09-12T14:04:07.118Z,99771.75
2022-09-12T14:04:38.495Z,99775.31
2022-09-12T14:05:09.990Z,99772.56
2022-09-12T14:05:41.458Z,99773.06
2022-09-12T14:06:12.894Z,99772.56
2022-09-12T14:06:44.328Z,99774.50
2022-09-12T14:07:16.032Z,99767.91
2022-09-12T14:07:47.499Z,99772.25
2022-09-12T14:08:18.910Z,99768.41
2022-09-12T14:08:50.496Z,99765.97
2022-09-12T14:09:24.974Z,99767.59
2022-09-12T14:09:56.857Z,99765.16
2022-09-12T14:10:28.270Z,99769.81
2022-09-12T14:10:59.681Z,99759.72
2022-09-12T14:11:31.083Z,99767.09
2022-09-12T14:12:02.490Z,99767.09
2022-09-12T14:12:33.931Z,99768.72
2022-09-12T14:13:05.374Z,99770.34
2022-09-12T14:13:36.800Z,99764.06
2022-09-12T14:14:08.251Z,99768.41
2022-09-12T14:14:39.609Z,99772.25
2022-09-12T14:15:11.049Z,99766.50
2022-09-12T14:15:42.535Z,99767.00
2022-09-12T14:16:14.007Z,99770.84
2022-09-12T14:16:45.475Z,99765.38
2022-09-12T14:17:18.950Z,99765.38
2022-09-12T14:17:53.277Z,99776.00
2022-09-12T14:18:24.742Z,99770.53
2022-09-12T14:18:56.173Z,99769.72
2022-09-12T14:19:27.552Z,99767.59
2022-09-12T14:19:58.979Z,99767.28
2022-09-12T14:20:30.408Z,99770.84
2022-09-12T14:21:01.828Z,99773.28
2022-09-12T14:21:33.242Z,99768.91
2022-09-12T14:22:04.654Z,99763.44
2022-09-12T14:22:36.106Z,99764.56
2022-09-12T14:23:07.531Z,99765.38
2022-09-12T14:23:38.978Z,99768.41
2022-09-12T14:24:10.386Z,99768.41
2022-09-12T14:24:41.860Z,99765.69
2022-09-12T14:25:13.272Z,99764.06
2022-09-12T14:25:44.813Z,99765.97
2022-09-12T14:26:16.325Z,99768.72
2022-09-12T14:26:47.725Z,99769.22
2022-09-12T14:27:19.172Z,99769.53
2022-09-12T14:27:50.665Z,99771.44
2022-09-12T14:28:23.750Z,99762.13
2022-09-12T14:28:55.398Z,99764.56
2022-09-12T14:29:26.827Z,99767.59
2022-09-12T14:29:58.346Z,99767.00
2022-09-12T14:30:29.734Z,99766.78
2022-09-12T14:31:01.224Z,99766.50
2022-09-12T14:31:32.673Z,99763.25
2022-09-12T14:32:04.230Z,99763.44
2022-09-12T14:32:35.631Z,99759.91
2022-09-12T14:33:07.087Z,99761.81
2022-09-12T14:33:38.500Z,99755.56
2022-09-12T14:34:09.932Z,99762.13
2022-09-12T14:34:41.342Z,99762.13
2022-09-12T14:35:12.742Z,99761.31
2022-09-12T14:35:44.156Z,99755.03
2022-09-12T14:36:15.863Z,99754.44
2022-09-12T14:36:47.500Z,99756.88
2022-09-12T14:37:18.873Z,99755.25
2022-09-12T14:37:50.305Z,99754.44
2022-09-12T14:38:21.777Z,99755.03
2022-09-12T14:38:53.216Z,99755.03
2022-09-12T14:39:24.616Z,99755.03
2022-09-12T14:39:56.090Z,99758.28
2022-09-12T14:40:27.576Z,99754.44
2022-09-12T14:40:59.014Z,99749.78
2022-09-12T14:41:30.395Z,99750.59
2022-09-12T14:42:01.832Z,99751.69
2022-09-12T14:42:33.246Z,99749.28
2022-09-12T14:43:04.734Z,99755.03
2022-09-12T14:43:36.249Z,99756.06
2022-09-12T14:44:07.708Z,99751.19
2022-09-12T14:44:39.095Z,99749.78
2022-09-12T14:45:10.523Z,99752.31
2022-09-12T14:45:42.010Z,99748.78
2022-09-12T14:46:13.472Z,99755.03
2022-09-12T14:46:44.870Z,99752.00
2022-09-12T14:47:16.373Z,99748.97
2022-09-12T14:47:47.836Z,99745.13
2022-09-12T14:48:19.241Z,99748.97
2022-09-12T14:48:50.766Z,99746.22
2022-09-12T14:49:22.162Z,99748.16
2022-09-12T14:49:53.610Z,99746.22
2022-09-12T14:50:25.033Z,99745.13
2022-09-12T14:50:56.430Z,99739.66
2022-09-12T14:51:27.827Z,99739.16
2022-09-12T14:51:59.260Z,99738.03
2022-09-12T14:52:30.679Z,99740.25
2022-09-12T14:53:02.138Z,99738.84
2022-09-12T14:53:33.510Z,99744.63
2022-09-12T14:54:04.949Z,99739.66
2022-09-12T14:54:36.355Z,99737.22
2022-09-12T14:55:07.841Z,99739.97
2022-09-12T14:55:39.328Z,99744.63
2022-09-12T14:56:10.765Z,99734.19
2022-09-12T14:56:42.181Z,99735.00
2022-09-12T14:57:13.715Z,99732.25
2022-09-12T14:57:45.140Z,99733.38
2022-09-12T14:58:16.540Z,99733.38
2022-09-12T14:58:47.970Z,99732.25
2022-09-12T14:59:19.432Z,99738.84
2022-09-12T14:59:50.844Z,99730.63
2022-09-12T15:00:22.263Z,99731.75
2022-09-12T15:00:53.682Z,99738.03
2022-09-12T15:01:25.261Z,99733.69
2022-09-12T15:01:56.759Z,99733.38
2022-09-12T15:02:28.191Z,99733.69
2022-09-12T15:02:59.626Z,99735.59
2022-09-12T15:03:31.050Z,99735.31
2022-09-12T15:04:02.513Z,99733.69
2022-09-12T15:04:34.037Z,99740.25
2022-09-12T15:05:05.484Z,99732.56
2022-09-12T15:05:36.926Z,99728.72
2022-09-12T15:06:08.354Z,99735.31
2022-09-12T15:06:39.727Z,99732.06
2022-09-12T15:07:11.182Z,99737.22
2022-09-12T15:07:42.580Z,99730.94
2022-09-12T15:08:13.982Z,99729.03
2022-09-12T15:08:45.408Z,99727.41
2022-09-12T15:09:16.909Z,99729.63
2022-09-12T15:09:48.372Z,99724.97
2022-09-12T15:10:19.773Z,99726.59
2022-09-12T15:10:51.240Z,99721.13
2022-09-12T15:11:22.630Z,99720.31
2022-09-12T15:11:54.060Z,99728.22
2022-09-12T15:12:25.542Z,99715.34
2022-09-12T15:12:56.917Z,99723.03
2022-09-12T15:13:28.338Z,99709.06
2022-09-12T15:13:59.734Z,99710.50
2022-09-12T15:14:31.092Z,99712.91
2022-09-12T15:15:02.706Z,99710.19
2022-09-12T15:15:34.157Z,99706.34
2022-09-12T15:16:05.673Z,99705.53
2022-09-12T15:16:37.086Z,99712.13
2022-09-12T15:17:08.485Z,99701.19
2022-09-12T15:17:40.166Z,99705.03
2022-09-12T15:18:11.615Z,99700.38
2022-09-12T15:18:43.039Z,99702.59
2022-09-12T15:19:14.426Z,99704.72
2022-09-12T15:19:45.861Z,99709.06
2022-09-12T15:20:17.306Z,99701.69
2022-09-12T15:20:48.750Z,99695.41
2022-09-12T15:21:20.165Z,99698.13
2022-09-12T15:21:51.531Z,99697.63
2022-09-12T15:22:22.923Z,99703.09
2022-09-12T15:22:54.306Z,99691.06
2022-09-12T15:23:25.799Z,99695.72
2022-09-12T15:23:57.240Z,99697.31
2022-09-12T15:24:28.758Z,99703.59
2022-09-12T15:25:00.281Z,99698.13
2022-09-12T15:25:31.760Z,99701.19
2022-09-12T15:26:03.216Z,99697.03
2022-09-12T15:26:34.627Z,99693.47
2022-09-12T15:27:06.043Z,99698.44
2022-09-12T15:27:37.434Z,99702.78
2022-09-12T15:28:08.848Z,99702.78
2022-09-12T15:28:40.265Z,99702.00
2022-09-12T15:29:11.678Z,99698.75
2022-09-12T15:29:43.091Z,99702.00
2022-09-12T15:30:14.565Z,99702.00